Time;durP1;ratioP1;P1;durP2;ratioP2;P2;SDS_P1;SDS_P2;PMS_P1;PMS_P2;Temp;Humidity;BMP_temperature;BMP_pressure;BME280_temperature;BME280_humidity;BME280_pressure;Samples;Min_cycle;Max_cycle;Signal;HPM_P1;HPM_P2
2023/09/16 00:00:08;;;;;;;14.18;10.05;;;14.30;99.90;;;;;;7604347;19;20047;-72
2023/09/16 00:02:40;;;;;;;16.95;10.07;;;14.30;99.90;;;;;;7577484;19;20611;-72
2023/09/16 00:05:13;;;;;;;13.52;9.70;;;14.30;99.90;;;;;;7594300;19;20061;-73
2023/09/16 00:07:45;;;;;;;13.98;9.82;;;14.30;99.90;;;;;;7601729;19;20975;-73
2023/09/16 00:10:17;;;;;;;15.20;10.48;;;14.30;99.90;;;;;;7606550;19;20026;-73
2023/09/16 00:12:49;;;;;;;16.42;10.15;;;14.30;99.90;;;;;;7600292;19;20047;-74
2023/09/16 00:15:22;;;;;;;16.38;11.50;;;14.20;99.90;;;;;;7593132;19;20997;-74
2023/09/16 00:17:54;;;;;;;17.48;12.40;;;14.20;99.90;;;;;;7601781;19;20022;-74
2023/09/16 00:20:28;;;;;;;17.38;11.55;;;14.10;99.90;;;;;;7605447;19;20654;-71
2023/09/16 00:23:00;;;;;;;14.18;10.25;;;14.10;99.90;;;;;;7601781;19;20018;-72
2023/09/16 00:25:33;;;;;;;19.58;12.27;;;14.10;99.90;;;;;;7592337;19;20014;-72
2023/09/16 00:28:08;;;;;;;19.25;11.95;;;14.10;99.90;;;;;;7611969;19;20022;-72
2023/09/16 00:30:48;;;;;;;18.10;11.63;;;14.00;99.90;;;;;;7603088;19;20057;-73
2023/09/16 00:33:20;;;;;;;17.73;12.05;;;14.10;99.90;;;;;;7593159;19;20022;-72
2023/09/16 00:35:52;;;;;;;17.05;11.70;;;14.10;99.90;;;;;;7601391;19;20021;-71
2023/09/16 00:38:25;;;;;;;16.25;10.52;;;14.00;99.90;;;;;;7604027;19;20018;-74
2023/09/16 00:40:57;;;;;;;17.35;11.77;;;14.00;99.90;;;;;;7597619;19;20006;-72
2023/09/16 00:43:29;;;;;;;13.30;10.07;;;13.90;99.90;;;;;;7590050;19;20117;-74
2023/09/16 00:46:02;;;;;;;17.30;11.33;;;13.90;99.90;;;;;;7585039;19;20047;-73
2023/09/16 00:48:35;;;;;;;13.70;10.30;;;13.90;99.90;;;;;;7598035;19;20350;-71
2023/09/16 00:51:08;;;;;;;16.75;10.60;;;13.90;99.90;;;;;;7577583;19;21171;-71
2023/09/16 00:53:42;;;;;;;16.75;11.23;;;13.80;99.90;;;;;;7592165;19;20018;-72
2023/09/16 00:56:17;;;;;;;18.55;10.63;;;13.80;99.90;;;;;;7594362;19;20014;-73
2023/09/16 00:58:49;;;;;;;15.93;10.48;;;13.70;99.90;;;;;;7587191;19;20018;-74
2023/09/16 01:01:24;;;;;;;20.73;11.30;;;13.70;99.90;;;;;;7581727;19;22588;-72
2023/09/16 01:03:57;;;;;;;18.92;12.65;;;13.80;99.90;;;;;;7573578;19;20461;-73
2023/09/16 01:06:31;;;;;;;17.17;10.38;;;13.70;99.90;;;;;;7588074;19;20014;-72
2023/09/16 01:09:04;;;;;;;17.77;11.88;;;13.60;99.90;;;;;;7593616;19;20117;-71
2023/09/16 01:11:38;;;;;;;17.13;10.87;;;13.70;99.90;;;;;;7598081;19;20018;-72
2023/09/16 01:14:13;;;;;;;;;;;13.70;99.90;;;;;;7599617;19;20023;-72
2023/09/16 01:16:58;;;;;;;14.68;10.60;;;13.70;99.90;;;;;;7592144;19;20587;-72
2023/09/16 01:19:41;;;;;;;17.77;10.45;;;13.70;99.90;;;;;;7600717;19;20027;-72
2023/09/16 01:22:14;;;;;;;18.63;10.82;;;13.70;99.90;;;;;;7594864;19;20015;-72
2023/09/16 01:25:06;;;;;;;16.00;9.88;;;13.70;99.90;;;;;;7590931;19;20058;-73
2023/09/16 01:27:38;;;;;;;16.38;10.57;;;13.70;99.90;;;;;;7600393;19;20058;-74
2023/09/16 01:30:13;;;;;;;14.30;11.00;;;13.60;99.90;;;;;;7582381;19;20034;-72
2023/09/16 01:32:49;;;;;;;17.92;11.55;;;13.60;99.90;;;;;;7592072;19;20328;-71
2023/09/16 01:35:25;;;;;;;12.93;10.35;;;13.60;99.90;;;;;;7585113;19;20333;-72
2023/09/16 01:37:58;;;;;;;19.88;11.57;;;13.60;99.90;;;;;;7595538;19;20021;-75
2023/09/16 01:40:33;;;;;;;18.52;12.35;;;13.50;99.90;;;;;;7599363;19;20547;-72
2023/09/16 01:43:07;;;;;;;22.38;12.50;;;13.50;99.90;;;;;;7587786;19;20010;-73
2023/09/16 01:45:44;;;;;;;22.13;13.65;;;13.40;99.90;;;;;;7598185;19;20464;-72
2023/09/16 01:48:16;;;;;;;20.45;12.75;;;13.40;99.90;;;;;;7592572;19;20014;-72
2023/09/16 01:50:49;;;;;;;19.48;12.27;;;13.40;99.90;;;;;;7597452;19;20026;-72
2023/09/16 01:53:21;;;;;;;22.27;14.02;;;13.40;99.90;;;;;;7594633;19;20030;-72
2023/09/16 01:55:53;;;;;;;17.00;12.68;;;13.40;99.90;;;;;;7598551;19;20666;-74
2023/09/16 01:58:26;;;;;;;17.20;12.27;;;13.30;99.90;;;;;;7583018;19;20022;-74
2023/09/16 02:00:59;;;;;;;23.10;14.00;;;13.30;99.90;;;;;;7589198;19;20423;-71
2023/09/16 02:03:31;;;;;;;20.70;13.75;;;13.30;99.90;;;;;;7595744;19;21036;-72
2023/09/16 02:06:08;;;;;;;16.73;12.38;;;13.30;99.90;;;;;;7596675;19;20024;-71
2023/09/16 02:08:40;;;;;;;21.00;12.27;;;13.40;99.90;;;;;;7600769;19;20021;-72
2023/09/16 02:11:12;;;;;;;16.15;11.73;;;13.40;99.90;;;;;;7579635;19;20110;-73
2023/09/16 02:13:44;;;;;;;15.85;11.48;;;13.40;99.90;;;;;;7591207;19;20039;-73
2023/09/16 02:16:17;;;;;;;16.85;10.30;;;13.30;99.90;;;;;;7596853;19;20025;-72
2023/09/16 02:18:50;;;;;;;16.83;10.50;;;13.30;99.90;;;;;;7598817;19;20026;-74
2023/09/16 02:21:22;;;;;;;15.63;11.27;;;13.40;99.90;;;;;;7598306;19;20025;-72
2023/09/16 02:23:55;;;;;;;16.50;10.93;;;13.40;99.90;;;;;;7590025;19;20010;-73
2023/09/16 02:26:27;;;;;;;18.50;11.23;;;13.40;99.90;;;;;;7598536;19;20039;-71
2023/09/16 02:28:59;;;;;;;16.65;11.02;;;13.30;99.90;;;;;;7605439;19;20528;-72
2023/09/16 02:31:31;;;;;;;17.25;11.98;;;13.40;99.90;;;;;;7598842;19;22874;-73
2023/09/16 02:34:03;;;;;;;15.93;11.98;;;13.40;99.90;;;;;;7598936;19;20163;-75
2023/09/16 02:36:37;;;;;;;18.05;11.70;;;13.30;99.90;;;;;;7596912;19;20144;-74
2023/09/16 02:39:10;;;;;;;18.92;12.20;;;13.30;99.90;;;;;;7592550;19;20034;-74
2023/09/16 02:41:43;;;;;;;17.05;11.80;;;13.30;99.90;;;;;;7595366;19;20021;-71
2023/09/16 02:44:15;;;;;;;20.48;11.23;;;13.30;99.90;;;;;;7591035;19;20018;-71
2023/09/16 02:46:47;;;;;;;17.20;10.63;;;13.30;99.90;;;;;;7588573;19;20015;-74
2023/09/16 02:49:20;;;;;;;23.92;11.25;;;13.30;99.90;;;;;;7592193;19;20480;-72
2023/09/16 02:51:52;;;;;;;15.90;10.30;;;13.30;99.90;;;;;;7589934;19;20019;-74
2023/09/16 02:54:25;;;;;;;20.33;11.55;;;13.30;99.90;;;;;;7594352;19;20015;-74
2023/09/16 02:56:57;;;;;;;14.07;10.60;;;13.20;99.90;;;;;;7598014;19;20043;-74
2023/09/16 02:59:29;;;;;;;18.73;11.05;;;13.20;99.90;;;;;;7582315;19;20230;-72
2023/09/16 03:02:02;;;;;;;19.50;12.00;;;13.20;99.90;;;;;;7586951;19;20076;-71
2023/09/16 03:04:35;;;;;;;18.83;10.97;;;13.20;99.90;;;;;;7591956;19;20430;-71
2023/09/16 03:07:07;;;;;;;20.73;11.20;;;13.20;99.90;;;;;;7592182;19;20015;-72
2023/09/16 03:09:39;;;;;;;12.88;9.70;;;13.20;99.90;;;;;;7594511;19;20499;-74
2023/09/16 03:12:15;;;;;;;16.05;9.68;;;13.10;99.90;;;;;;7598817;19;20045;-75
2023/09/16 03:14:48;;;;;;;18.85;9.48;;;13.20;99.90;;;;;;7593116;19;20030;-74
2023/09/16 03:17:20;;;;;;;15.77;9.95;;;13.20;99.90;;;;;;7613178;19;20018;-72
2023/09/16 03:19:53;;;;;;;19.40;11.25;;;13.10;99.90;;;;;;7603489;19;20115;-74
2023/09/16 03:22:25;;;;;;;16.67;11.20;;;13.00;99.90;;;;;;7611922;19;20025;-74
2023/09/16 03:24:57;;;;;;;20.52;11.88;;;13.10;99.90;;;;;;7598064;19;20722;-73
2023/09/16 03:27:29;;;;;;;17.67;11.02;;;13.00;99.90;;;;;;7603119;19;20019;-74
2023/09/16 03:30:02;;;;;;;18.77;11.30;;;13.00;99.90;;;;;;7609332;19;20373;-74
2023/09/16 03:32:38;;;;;;;17.27;11.27;;;13.00;99.90;;;;;;7594674;19;20021;-72
2023/09/16 03:35:11;;;;;;;19.15;11.55;;;13.00;99.90;;;;;;7599018;19;20015;-72
2023/09/16 03:37:44;;;;;;;18.60;13.02;;;13.00;99.90;;;;;;7608981;19;20022;-71
2023/09/16 03:40:17;;;;;;;20.33;14.00;;;13.00;99.90;;;;;;7607136;19;20031;-72
2023/09/16 03:42:49;;;;;;;16.92;12.10;;;12.90;99.90;;;;;;7602251;19;21105;-72
2023/09/16 03:45:22;;;;;;;22.98;13.07;;;13.00;99.90;;;;;;7606006;19;20055;-71
2023/09/16 03:48:02;;;;;;;17.48;12.80;;;13.00;99.90;;;;;;7612481;19;20451;-72
2023/09/16 03:50:37;;;;;;;23.33;14.68;;;12.90;99.90;;;;;;7602520;19;20007;-72
2023/09/16 03:53:10;;;;;;;17.60;12.27;;;12.90;99.90;;;;;;7616941;19;20039;-75
2023/09/16 03:55:44;;;;;;;20.45;13.63;;;12.90;99.90;;;;;;7604304;19;20501;-71
2023/09/16 03:58:17;;;;;;;21.33;13.77;;;12.80;99.90;;;;;;7585326;19;20487;-71
2023/09/16 04:00:49;;;;;;;19.20;13.27;;;12.80;99.90;;;;;;7614004;19;20006;-72
2023/09/16 04:03:21;;;;;;;16.33;11.98;;;12.90;99.90;;;;;;7614209;19;20022;-72
2023/09/16 04:05:57;;;;;;;19.63;12.90;;;12.80;99.90;;;;;;7608344;19;20041;-71
2023/09/16 04:08:31;;;;;;;17.90;11.35;;;12.80;99.90;;;;;;7610262;19;20019;-72
2023/09/16 04:11:13;;;;;;;24.88;12.43;;;12.80;99.90;;;;;;7609114;19;20014;-72
2023/09/16 04:13:45;;;;;;;16.65;11.93;;;12.80;99.90;;;;;;7606507;19;20098;-72
2023/09/16 04:16:18;;;;;;;23.87;12.20;;;12.80;99.90;;;;;;7592929;19;20015;-71
2023/09/16 04:18:53;;;;;;;21.58;13.48;;;12.80;99.90;;;;;;7612024;19;20546;-74
2023/09/16 04:21:26;;;;;;;21.45;12.60;;;12.80;99.90;;;;;;7607200;19;20515;-71
2023/09/16 04:23:58;;;;;;;19.38;12.57;;;12.80;99.90;;;;;;7606993;19;20917;-72
2023/09/16 04:26:32;;;;;;;19.73;12.18;;;12.80;99.90;;;;;;7600724;19;20048;-74
2023/09/16 04:29:04;;;;;;;20.83;13.43;;;12.90;99.90;;;;;;7600488;19;20393;-73
2023/09/16 04:31:37;;;;;;;22.58;13.10;;;12.80;99.90;;;;;;7605238;19;20546;-72
2023/09/16 04:34:09;;;;;;;19.27;12.68;;;12.80;99.90;;;;;;7607605;19;20026;-74
2023/09/16 04:36:43;;;;;;;19.63;12.93;;;12.80;99.90;;;;;;7603452;19;20032;-74
2023/09/16 04:39:16;;;;;;;17.55;12.52;;;12.80;99.90;;;;;;7609647;19;20049;-71
2023/09/16 04:41:56;;;;;;;19.23;14.07;;;12.80;99.90;;;;;;7600150;19;20010;-73
2023/09/16 04:44:29;;;;;;;21.85;14.52;;;12.70;99.90;;;;;;7589113;19;20010;-74
2023/09/16 04:47:07;;;;;;;25.20;15.57;;;12.70;99.90;;;;;;7591614;19;20300;-71
2023/09/16 04:49:39;;;;;;;20.70;14.27;;;12.70;99.90;;;;;;7605969;19;21048;-71
2023/09/16 04:52:12;;;;;;;20.85;13.50;;;12.70;99.90;;;;;;7601777;19;20018;-72
2023/09/16 04:54:44;;;;;;;24.25;15.20;;;12.70;99.90;;;;;;7590053;19;20018;-72
2023/09/16 04:57:17;;;;;;;20.55;14.57;;;12.70;99.90;;;;;;7606197;19;20018;-71
2023/09/16 04:59:49;;;;;;;22.10;14.98;;;12.60;99.90;;;;;;7602606;19;20020;-71
2023/09/16 05:02:22;;;;;;;20.70;13.68;;;12.60;99.90;;;;;;7595914;19;20018;-71
2023/09/16 05:04:55;;;;;;;18.65;13.77;;;12.60;99.90;;;;;;7602258;19;20034;-72
2023/09/16 05:07:28;;;;;;;;;;;12.60;99.90;;;;;;7595560;19;20043;-71
2023/09/16 05:10:00;;;;;;;17.65;12.20;;;12.70;99.90;;;;;;7601038;19;20479;-71
2023/09/16 05:12:33;;;;;;;20.58;14.68;;;12.70;99.90;;;;;;7591991;19;20015;-72
2023/09/16 05:15:06;;;;;;;21.02;13.05;;;12.70;99.90;;;;;;7593081;19;21579;-71
2023/09/16 05:17:40;;;;;;;25.17;13.85;;;12.70;99.90;;;;;;7597503;19;20011;-71
2023/09/16 05:20:13;;;;;;;18.90;13.55;;;12.70;99.90;;;;;;7597124;19;20030;-74
2023/09/16 05:22:46;;;;;;;26.65;14.15;;;12.60;99.90;;;;;;7603667;19;21023;-72
2023/09/16 05:25:19;;;;;;;19.95;14.27;;;12.70;99.90;;;;;;7597809;19;20015;-74
2023/09/16 05:27:52;;;;;;;22.00;13.82;;;12.70;99.90;;;;;;7589292;19;20010;-71
2023/09/16 05:30:24;;;;;;;21.95;15.23;;;12.70;99.90;;;;;;7592886;19;20022;-72
2023/09/16 05:32:57;;;;;;;25.92;15.63;;;12.70;99.90;;;;;;7595283;19;20492;-72
2023/09/16 05:35:29;;;;;;;23.80;13.73;;;12.70;99.90;;;;;;7594601;19;20014;-72
2023/09/16 05:38:02;;;;;;;25.40;15.68;;;12.70;99.90;;;;;;7598582;19;20014;-72
2023/09/16 05:40:38;;;;;;;24.52;13.90;;;12.80;99.90;;;;;;7589776;19;20036;-72
2023/09/16 05:43:11;;;;;;;18.55;13.43;;;12.80;99.90;;;;;;7595202;19;20524;-72
2023/09/16 05:45:49;;;;;;;23.13;15.50;;;12.80;99.90;;;;;;7581259;19;21685;-72
2023/09/16 05:48:24;;;;;;;21.45;13.57;;;13.00;99.90;;;;;;7598541;19;20802;-72
2023/09/16 05:50:58;;;;;;;22.90;13.85;;;13.10;99.90;;;;;;7602323;19;20357;-73
2023/09/16 05:53:34;;;;;;;22.50;13.70;;;13.10;99.90;;;;;;7596308;19;20022;-72
2023/09/16 05:56:10;;;;;;;19.65;13.82;;;13.20;99.90;;;;;;7569130;19;20371;-72
2023/09/16 05:58:46;;;;;;;19.85;13.35;;;13.30;99.90;;;;;;7578643;19;20052;-72
2023/09/16 06:01:22;;;;;;;21.90;15.00;;;13.50;99.90;;;;;;7577964;19;20988;-72
2023/09/16 06:03:54;;;;;;;23.08;14.07;;;13.60;99.90;;;;;;7581292;19;20044;-71
2023/09/16 06:06:27;;;;;;;18.98;13.82;;;13.60;99.90;;;;;;7596525;19;20093;-72
2023/09/16 06:08:59;;;;;;;18.98;13.40;;;13.70;99.90;;;;;;7568747;19;20042;-72
2023/09/16 06:11:32;;;;;;;17.92;12.85;;;13.70;99.90;;;;;;7581482;19;20019;-72
2023/09/16 06:14:05;;;;;;;18.27;14.23;;;13.80;99.90;;;;;;7576234;19;20285;-72
2023/09/16 06:16:39;;;;;;;22.63;13.20;;;13.90;99.90;;;;;;7585157;19;20018;-72
2023/09/16 06:19:11;;;;;;;24.10;13.80;;;14.00;99.90;;;;;;7603175;19;21324;-73
2023/09/16 06:21:43;;;;;;;18.70;13.82;;;14.10;99.90;;;;;;7593627;19;20014;-72
2023/09/16 06:24:16;;;;;;;19.63;13.00;;;14.10;99.90;;;;;;7589089;19;20022;-73
2023/09/16 06:26:52;;;;;;;16.45;12.32;;;14.30;99.90;;;;;;7590459;19;20518;-73
2023/09/16 06:29:25;;;;;;;15.88;11.85;;;14.40;99.90;;;;;;7597935;19;20054;-73
2023/09/16 06:31:58;;;;;;;17.05;12.10;;;14.50;99.90;;;;;;7599770;19;20028;-73
2023/09/16 06:34:30;;;;;;;17.77;12.15;;;14.60;99.90;;;;;;7588082;19;20018;-72
2023/09/16 06:37:05;;;;;;;14.75;11.52;;;14.70;99.90;;;;;;7596542;19;20492;-72
2023/09/16 06:39:37;;;;;;;16.27;12.30;;;14.80;99.90;;;;;;7584493;19;20035;-72
2023/09/16 06:42:10;;;;;;;13.88;11.38;;;15.00;99.90;;;;;;7579918;19;20022;-73
2023/09/16 06:44:52;;;;;;;16.27;11.98;;;15.20;99.90;;;;;;7591340;19;20083;-72
2023/09/16 06:47:28;;;;;;;14.30;10.27;;;15.40;99.90;;;;;;7557028;19;20393;-71
2023/09/16 06:50:01;;;;;;;13.80;10.90;;;15.50;99.90;;;;;;7475961;19;21536;-72
2023/09/16 06:52:35;;;;;;;13.65;10.88;;;15.60;99.90;;;;;;7475275;19;20014;-72
2023/09/16 06:55:07;;;;;;;17.20;11.25;;;15.70;99.90;;;;;;7487702;19;20007;-72
2023/09/16 06:57:40;;;;;;;16.65;11.57;;;15.90;99.90;;;;;;7479477;19;20026;-74
2023/09/16 07:00:13;;;;;;;17.42;11.43;;;16.00;99.90;;;;;;7476490;19;20064;-72
2023/09/16 07:02:46;;;;;;;13.90;10.75;;;16.20;99.90;;;;;;7477973;19;20050;-72
2023/09/16 07:05:19;;;;;;;16.13;12.07;;;16.30;99.90;;;;;;7474266;19;20010;-72
2023/09/16 07:07:52;;;;;;;14.45;11.02;;;16.50;99.90;;;;;;7475858;19;20521;-72
2023/09/16 07:10:25;;;;;;;;;;;16.60;99.90;;;;;;7518905;19;20017;-73
2023/09/16 07:12:57;;;;;;;13.43;10.20;;;16.70;99.90;;;;;;7592970;19;19986;-74
2023/09/16 07:15:29;;;;;;;13.00;10.55;;;16.80;99.90;;;;;;7593466;19;20902;-74
2023/09/16 07:18:02;;;;;;;16.73;10.77;;;16.90;99.90;;;;;;7591835;19;20086;-74
2023/09/16 07:20:35;;;;;;;15.02;11.45;;;17.00;99.90;;;;;;7603883;19;20283;-73
2023/09/16 07:23:08;;;;;;;13.17;10.13;;;17.00;99.90;;;;;;7578075;19;20018;-73
2023/09/16 07:25:40;;;;;;;15.30;9.93;;;17.10;99.90;;;;;;7577529;19;20025;-73
2023/09/16 07:28:12;;;;;;;12.98;10.30;;;17.20;99.90;;;;;;7599047;19;20014;-73
2023/09/16 07:30:45;;;;;;;14.60;10.32;;;17.30;99.90;;;;;;7594996;19;20045;-75
2023/09/16 07:33:17;;;;;;;13.57;10.77;;;17.50;99.90;;;;;;7574113;19;20940;-75
2023/09/16 07:35:51;;;;;;;13.57;9.13;;;17.50;99.90;;;;;;7577610;19;20018;-73
2023/09/16 07:38:23;;;;;;;13.60;9.32;;;17.50;99.90;;;;;;7579872;19;20025;-73
2023/09/16 07:40:55;;;;;;;11.05;9.00;;;17.70;99.90;;;;;;7575385;19;20018;-74
2023/09/16 07:43:28;;;;;;;11.68;9.70;;;17.90;99.90;;;;;;7580648;19;20019;-74
2023/09/16 08:12:53;;;;;;;12.05;8.40;;;19.30;99.90;;;;;;7553196;19;20023;-72
2023/09/16 08:15:25;;;;;;;9.60;7.63;;;19.30;99.90;;;;;;7576665;19;20014;-73
2023/09/16 08:17:58;;;;;;;10.70;7.30;;;19.40;99.90;;;;;;7579990;19;20026;-72
2023/09/16 08:20:30;;;;;;;9.40;7.95;;;19.50;99.90;;;;;;7561524;19;20025;-74
2023/09/16 08:23:03;;;;;;;9.40;7.50;;;19.50;99.90;;;;;;7570751;19;20025;-74
2023/09/16 08:25:35;;;;;;;10.60;7.43;;;19.50;99.90;;;;;;7572479;19;20018;-73
2023/09/16 08:28:08;;;;;;;8.37;6.90;;;19.60;99.90;;;;;;7567407;19;20358;-72
2023/09/16 08:30:40;;;;;;;11.90;7.25;;;19.70;99.90;;;;;;7547699;19;20954;-73
2023/09/16 08:33:13;;;;;;;11.38;7.70;;;19.70;99.90;;;;;;7566950;19;20030;-72
2023/09/16 08:35:45;;;;;;;8.32;7.35;;;19.70;99.90;;;;;;7560591;19;20018;-72
2023/09/16 08:38:18;;;;;;;8.85;7.93;;;19.70;99.90;;;;;;7556263;19;20014;-73
2023/09/16 08:41:15;;;;;;;8.67;7.37;;;19.70;99.90;;;;;;7585439;19;20116;-72
2023/09/16 08:43:50;;;;;;;9.73;7.60;;;19.60;99.90;;;;;;7585784;19;20662;-73
2023/09/16 08:46:23;;;;;;;9.43;7.40;;;19.60;99.90;;;;;;7584012;19;20093;-71
2023/09/16 08:48:58;;;;;;;8.75;7.45;;;19.70;99.90;;;;;;7578943;19;20021;-73
2023/09/16 08:51:35;;;;;;;13.00;7.13;;;19.80;99.90;;;;;;7580599;19;20023;-74
2023/09/16 08:54:10;;;;;;;9.00;7.55;;;19.90;99.90;;;;;;7553980;19;20053;-78
2023/09/16 08:56:44;;;;;;;8.35;6.63;;;20.00;99.90;;;;;;7583790;19;20033;-76
2023/09/16 08:59:17;;;;;;;7.95;7.15;;;20.10;99.90;;;;;;7558499;19;20045;-74
2023/09/16 09:01:50;;;;;;;8.80;6.85;;;20.10;99.90;;;;;;7566361;19;21020;-74
2023/09/16 09:04:23;;;;;;;8.75;6.88;;;20.20;99.90;;;;;;7571270;19;20036;-74
2023/09/16 09:06:56;;;;;;;;;;;20.30;99.90;;;;;;7564254;19;22364;-73
2023/09/16 09:09:29;;;;;;;9.07;6.80;;;20.40;99.90;;;;;;7558244;19;19949;-74
2023/09/16 09:12:04;;;;;;;9.13;6.90;;;20.50;99.90;;;;;;7575208;19;20026;-73
2023/09/16 09:14:36;;;;;;;9.93;6.93;;;20.40;99.90;;;;;;7572197;19;20627;-74
2023/09/16 09:17:10;;;;;;;9.07;7.18;;;20.40;99.90;;;;;;7577313;19;20464;-73
2023/09/16 09:19:43;;;;;;;10.65;7.07;;;20.40;99.90;;;;;;7586205;19;20040;-75
2023/09/16 09:22:16;;;;;;;9.18;6.78;;;20.50;99.90;;;;;;7598324;19;20118;-74
2023/09/16 09:24:48;;;;;;;7.65;6.43;;;20.50;99.90;;;;;;7580259;19;20601;-75
2023/09/16 09:27:21;;;;;;;7.82;6.50;;;20.60;99.90;;;;;;7595980;19;20041;-75
2023/09/16 09:29:53;;;;;;;9.57;7.00;;;20.60;99.90;;;;;;7592940;19;20488;-75
2023/09/16 09:32:31;;;;;;;10.27;6.50;;;20.80;99.90;;;;;;7580557;19;21244;-75
2023/09/16 09:35:07;;;;;;;8.35;6.13;;;20.80;99.90;;;;;;7577577;19;20950;-74
2023/09/16 09:37:40;;;;;;;6.25;5.65;;;21.00;99.90;;;;;;7597864;19;20379;-73
2023/09/16 09:40:13;;;;;;;7.43;5.90;;;21.10;99.90;;;;;;7592887;19;20381;-73
2023/09/16 09:42:50;;;;;;;7.78;6.00;;;21.20;99.90;;;;;;7597464;19;20026;-73
2023/09/16 09:45:24;;;;;;;7.35;6.18;;;21.30;99.90;;;;;;7587520;19;20052;-73
2023/09/16 09:47:58;;;;;;;7.30;6.05;;;21.40;99.90;;;;;;7597848;19;20010;-73
2023/09/16 09:50:30;;;;;;;7.32;6.43;;;21.50;99.90;;;;;;7593743;19;20124;-73
2023/09/16 09:53:03;;;;;;;7.45;6.40;;;21.50;99.90;;;;;;7600242;19;20868;-73
2023/09/16 09:55:36;;;;;;;6.72;6.03;;;21.60;99.90;;;;;;7598086;19;20018;-74
2023/09/16 09:58:09;;;;;;;8.77;7.18;;;21.60;99.90;;;;;;7596214;19;21328;-73
2023/09/16 10:00:49;;;;;;;11.93;6.60;;;21.70;99.90;;;;;;7594877;19;20669;-73
2023/09/16 10:03:23;;;;;;;9.13;6.00;;;21.70;99.90;;;;;;7594342;19;20026;-72
2023/09/16 10:05:59;;;;;;;8.10;5.93;;;21.80;99.90;;;;;;7583280;19;20010;-73
2023/09/16 10:08:31;;;;;;;8.75;6.72;;;21.90;99.90;;;;;;7594203;19;20026;-73
2023/09/16 10:11:04;;;;;;;8.57;6.18;;;21.90;99.90;;;;;;7600726;19;20375;-73
2023/09/16 10:13:36;;;;;;;8.25;5.97;;;22.00;99.90;;;;;;7590428;19;20014;-75
2023/09/16 10:16:10;;;;;;;6.75;5.82;;;22.00;99.90;;;;;;7597571;19;20436;-75
2023/09/16 10:18:42;;;;;;;6.95;5.88;;;22.10;99.90;;;;;;7585987;19;20566;-75
2023/09/16 10:21:15;;;;;;;6.68;5.93;;;22.10;99.90;;;;;;7597620;19;20014;-75
2023/09/16 10:23:47;;;;;;;6.82;5.28;;;22.20;99.90;;;;;;7591011;19;20018;-73
2023/09/16 10:26:20;;;;;;;8.43;6.45;;;22.40;99.90;;;;;;7603443;19;20023;-74
2023/09/16 10:28:54;;;;;;;8.02;6.03;;;22.50;99.90;;;;;;7592145;19;20030;-74
2023/09/16 10:31:28;;;;;;;6.65;5.93;;;22.60;99.90;;;;;;7598418;19;20380;-74
2023/09/16 10:34:02;;;;;;;6.80;5.35;;;22.70;99.90;;;;;;7591545;19;20531;-73
2023/09/16 10:36:35;;;;;;;6.93;6.20;;;22.80;99.90;;;;;;7594707;19;20990;-74
2023/09/16 10:39:09;;;;;;;8.82;6.30;;;22.90;99.90;;;;;;7596354;19;20512;-74
2023/09/16 10:41:44;;;;;;;7.45;6.15;;;23.00;99.90;;;;;;7592913;19;20013;-74
2023/09/16 10:44:16;;;;;;;6.38;5.68;;;23.10;99.90;;;;;;7588242;19;20014;-74
2023/09/16 10:46:50;;;;;;;6.60;5.65;;;23.20;99.90;;;;;;7596351;19;20039;-74
2023/09/16 10:49:23;;;;;;;6.75;5.78;;;23.30;99.90;;;;;;7604667;19;20610;-74
2023/09/16 10:52:01;;;;;;;9.10;5.25;;;23.40;99.90;;;;;;7604828;19;20010;-74
2023/09/16 10:55:02;;;;;;;6.72;6.03;;;23.50;99.90;;;;;;7597489;19;20026;-75
2023/09/16 10:57:39;;;;;;;6.75;6.05;;;23.60;99.90;;;;;;7593896;19;20011;-74
2023/09/16 11:00:12;;;;;;;7.93;5.90;;;23.60;99.90;;;;;;7593920;19;20014;-73
2023/09/16 11:02:52;;;;;;;10.38;6.28;;;23.60;99.90;;;;;;7603027;19;20019;-74
2023/09/16 11:05:26;;;;;;;6.90;6.20;;;23.50;99.90;;;;;;7603444;19;20115;-74
2023/09/16 11:07:58;;;;;;;;;;;23.60;99.90;;;;;;7605556;19;21007;-74
2023/09/16 11:10:31;;;;;;;9.32;6.22;;;23.80;99.90;;;;;;7613919;19;19931;-74
2023/09/16 11:13:04;;;;;;;7.13;5.30;;;24.00;99.90;;;;;;7604121;19;20709;-73
2023/09/16 11:15:40;;;;;;;6.03;5.43;;;24.10;99.90;;;;;;7602736;19;20022;-75
2023/09/16 11:18:16;;;;;;;6.68;5.78;;;24.30;99.90;;;;;;7602104;19;20018;-74
2023/09/16 11:20:48;;;;;;;7.32;5.82;;;24.40;99.90;;;;;;7595250;19;20574;-74
2023/09/16 11:23:22;;;;;;;6.10;5.28;;;24.50;99.90;;;;;;7603645;19;20070;-74
2023/09/16 11:25:57;;;;;;;5.82;5.22;;;24.90;99.90;;;;;;7602146;19;20043;-73
2023/09/16 11:28:29;;;;;;;8.38;5.47;;;25.40;99.90;;;;;;7600310;19;20047;-74
2023/09/16 11:31:01;;;;;;;7.35;6.30;;;26.00;99.90;;;;;;7597245;19;20051;-74
2023/09/16 11:33:39;;;;;;;7.07;5.38;;;26.50;99.60;;;;;;7607650;19;20707;-74
2023/09/16 11:36:19;;;;;;;8.80;5.38;;;27.00;99.40;;;;;;7605071;19;20079;-74
2023/09/16 11:39:18;;;;;;;7.00;5.80;;;27.50;98.20;;;;;;7605112;19;20022;-73
2023/09/16 11:41:50;;;;;;;6.22;5.63;;;28.00;96.70;;;;;;7596478;19;20018;-74
2023/09/16 11:44:23;;;;;;;8.48;5.65;;;28.10;97.20;;;;;;7609306;19;20364;-74
2023/09/16 11:46:57;;;;;;;5.78;5.28;;;28.70;96.80;;;;;;7607837;19;20056;-73
2023/09/16 11:49:33;;;;;;;;;;;29.10;94.90;;;;;;7609389;19;20020;-74
2023/09/16 11:52:06;;;;;;;6.30;4.80;;;29.40;94.90;;;;;;7611468;19;20463;-73
2023/09/16 11:54:39;;;;;;;6.07;5.03;;;29.70;93.00;;;;;;7611259;19;20014;-75
2023/09/16 11:57:12;;;;;;;6.03;5.43;;;30.00;91.80;;;;;;7606432;19;20020;-74
2023/09/16 11:59:46;;;;;;;7.13;4.82;;;30.10;92.20;;;;;;7610119;19;20015;-73
2023/09/16 12:02:18;;;;;;;5.32;4.82;;;30.30;90.60;;;;;;7609439;19;20048;-74
2023/09/16 12:04:52;;;;;;;8.70;4.83;;;30.30;90.30;;;;;;7609329;19;20019;-73
2023/09/16 12:07:25;;;;;;;5.32;4.82;;;30.50;87.80;;;;;;7605875;19;20279;-74
2023/09/16 12:10:06;;;;;;;9.30;4.55;;;30.70;85.90;;;;;;7101566;19;9999773;-74
2023/09/16 12:12:38;;;;;;;5.15;4.65;;;30.60;87.90;;;;;;7597202;19;20025;-74
2023/09/16 12:15:11;;;;;;;6.67;5.13;;;30.80;85.60;;;;;;7593638;19;20025;-74
2023/09/16 12:17:43;;;;;;;6.30;4.50;;;31.40;85.60;;;;;;7613857;19;20267;-74
2023/09/16 12:20:17;;;;;;;5.00;4.50;;;31.10;82.40;;;;;;7610272;19;20014;-74
2023/09/16 12:22:52;;;;;;;5.03;4.32;;;31.20;82.60;;;;;;7606387;19;20563;-74
2023/09/16 12:25:26;;;;;;;5.47;4.60;;;31.40;79.60;;;;;;7606574;19;20186;-74
2023/09/16 12:27:59;;;;;;;6.13;4.47;;;31.60;77.70;;;;;;7608481;19;20015;-73
2023/09/16 12:30:31;;;;;;;5.15;4.30;;;31.80;76.50;;;;;;7611047;19;20007;-74
2023/09/16 12:33:04;;;;;;;4.73;4.23;;;31.70;81.30;;;;;;7599067;19;20810;-73
2023/09/16 12:35:41;;;;;;;5.97;4.35;;;32.20;78.10;;;;;;7620840;19;20023;-74
2023/09/16 12:38:17;;;;;;;5.05;4.50;;;32.30;76.50;;;;;;7603994;19;20022;-74
2023/09/16 12:40:49;;;;;;;4.80;4.30;;;32.40;74.20;;;;;;7607146;19;20361;-73
2023/09/16 12:43:22;;;;;;;4.47;3.93;;;32.50;73.60;;;;;;7597973;19;21194;-73
2023/09/16 12:45:57;;;;;;;4.60;4.20;;;32.80;71.60;;;;;;7622334;19;20358;-74
2023/09/16 12:48:30;;;;;;;5.28;4.50;;;32.80;72.00;;;;;;7609044;19;20017;-74
2023/09/16 12:51:03;;;;;;;4.13;3.83;;;32.80;74.00;;;;;;7605395;19;20022;-73
2023/09/16 12:53:35;;;;;;;;;;;32.80;71.00;;;;;;7596889;19;20014;-74
2023/09/16 12:56:08;;;;;;;7.03;4.40;;;33.20;74.10;;;;;;7607494;19;19922;-74
2023/09/16 12:58:43;;;;;;;5.53;4.30;;;33.40;69.40;;;;;;7605363;19;20019;-74
2023/09/16 13:01:17;;;;;;;5.95;4.53;;;33.60;69.90;;;;;;7604784;19;20504;-74
2023/09/16 13:03:51;;;;;;;4.43;4.03;;;33.60;70.50;;;;;;7608114;19;20015;-74
2023/09/16 13:06:23;;;;;;;4.95;3.72;;;33.70;70.50;;;;;;7600766;19;20599;-73
2023/09/16 13:08:57;;;;;;;4.22;3.80;;;34.10;69.40;;;;;;7606359;19;20014;-72
2023/09/16 13:11:30;;;;;;;5.43;4.05;;;33.90;65.80;;;;;;7603856;19;20932;-73
2023/09/16 13:14:02;;;;;;;6.30;4.18;;;33.90;68.50;;;;;;7598259;19;20056;-73
2023/09/16 13:16:35;;;;;;;5.22;3.70;;;34.20;66.10;;;;;;7599589;19;20160;-73
2023/09/16 13:19:15;;;;;;;5.05;3.42;;;34.10;64.80;;;;;;7602733;19;20014;-73
2023/09/16 13:21:50;;;;;;;5.05;4.35;;;34.30;67.50;;;;;;7605541;19;20047;-73
2023/09/16 13:24:22;;;;;;;4.00;3.53;;;34.30;63.20;;;;;;7601630;19;20047;-72
2023/09/16 13:26:55;;;;;;;3.83;3.53;;;34.40;63.30;;;;;;7608543;19;20022;-74
2023/09/16 13:29:31;;;;;;;4.40;4.00;;;34.60;64.60;;;;;;7594290;19;20010;-74
2023/09/16 13:32:04;;;;;;;6.93;4.03;;;34.70;64.70;;;;;;7599074;19;20039;-75
2023/09/16 13:34:46;;;;;;;4.38;3.97;;;34.80;64.20;;;;;;7601956;19;20035;-74
2023/09/16 13:37:18;;;;;;;4.60;4.20;;;34.80;65.40;;;;;;7604857;19;20023;-73